sensor_id;sensor_type;location;lat;lon;timestamp;temperature;humidity
12981;DHT22;6555;50.468;8.480;2023-05-07T00:12:45;18.70;49.00
12981;DHT22;6555;50.468;8.480;2023-05-07T00:19:05;18.70;49.50
12981;DHT22;6555;50.468;8.480;2023-05-07T00:25:20;18.60;50.10
12981;DHT22;6555;50.468;8.480;2023-05-07T00:31:43;18.60;50.00
12981;DHT22;6555;50.468;8.480;2023-05-07T00:37:53;18.60;50.10
12981;DHT22;6555;50.468;8.480;2023-05-07T00:43:37;18.50;49.40
12981;DHT22;6555;50.468;8.480;2023-05-07T00:49:23;18.50;49.70
12981;DHT22;6555;50.468;8.480;2023-05-07T01:01:12;18.40;50.30
12981;DHT22;6555;50.468;8.480;2023-05-07T01:06:56;18.40;49.50
12981;DHT22;6555;50.468;8.480;2023-05-07T01:12:29;18.30;50.40
12981;DHT22;6555;50.468;8.480;2023-05-07T01:18:47;18.40;50.60
12981;DHT22;6555;50.468;8.480;2023-05-07T01:31:01;18.30;50.80
12981;DHT22;6555;50.468;8.480;2023-05-07T01:37:14;18.40;50.80
12981;DHT22;6555;50.468;8.480;2023-05-07T01:49:14;18.30;51.00
12981;DHT22;6555;50.468;8.480;2023-05-07T01:55:30;18.30;51.00
12981;DHT22;6555;50.468;8.480;2023-05-07T02:07:15;18.20;50.80
12981;DHT22;6555;50.468;8.480;2023-05-07T02:13:39;18.20;51.10
12981;DHT22;6555;50.468;8.480;2023-05-07T02:19:06;18.20;51.10
12981;DHT22;6555;50.468;8.480;2023-05-07T02:24:46;18.10;50.30
12981;DHT22;6555;50.468;8.480;2023-05-07T02:30:24;18.10;51.10
12981;DHT22;6555;50.468;8.480;2023-05-07T02:36:17;18.10;51.10
12981;DHT22;6555;50.468;8.480;2023-05-07T02:41:59;18.10;51.10
12981;DHT22;6555;50.468;8.480;2023-05-07T02:48:01;18.00;50.70
12981;DHT22;6555;50.468;8.480;2023-05-07T02:53:39;18.00;51.00
12981;DHT22;6555;50.468;8.480;2023-05-07T02:59:23;17.90;50.30
12981;DHT22;6555;50.468;8.480;2023-05-07T03:05:04;17.90;51.20
12981;DHT22;6555;50.468;8.480;2023-05-07T03:11:01;17.90;51.00
12981;DHT22;6555;50.468;8.480;2023-05-07T03:16:13;17.90;51.80
12981;DHT22;6555;50.468;8.480;2023-05-07T03:21:49;17.90;50.90
12981;DHT22;6555;50.468;8.480;2023-05-07T03:27:15;17.80;51.80
12981;DHT22;6555;50.468;8.480;2023-05-07T03:32:59;17.80;51.30
12981;DHT22;6555;50.468;8.480;2023-05-07T03:38:51;17.70;51.70
12981;DHT22;6555;50.468;8.480;2023-05-07T03:45:00;17.70;51.80
12981;DHT22;6555;50.468;8.480;2023-05-07T03:50:25;17.70;51.40
12981;DHT22;6555;50.468;8.480;2023-05-07T03:56:07;17.70;51.50
12981;DHT22;6555;50.468;8.480;2023-05-07T04:01:29;17.70;52.20
12981;DHT22;6555;50.468;8.480;2023-05-07T04:25:06;17.60;51.40
12981;DHT22;6555;50.468;8.480;2023-05-07T04:31:16;17.60;52.30
12981;DHT22;6555;50.468;8.480;2023-05-07T04:37:31;17.60;52.50
12981;DHT22;6555;50.468;8.480;2023-05-07T04:43:23;17.60;51.90
12981;DHT22;6555;50.468;8.480;2023-05-07T04:48:54;17.60;52.30
12981;DHT22;6555;50.468;8.480;2023-05-07T04:54:40;17.60;51.80
12981;DHT22;6555;50.468;8.480;2023-05-07T05:00:34;17.60;51.70
12981;DHT22;6555;50.468;8.480;2023-05-07T05:12:15;17.60;51.70
12981;DHT22;6555;50.468;8.480;2023-05-07T05:24:02;17.60;53.10
12981;DHT22;6555;50.468;8.480;2023-05-07T05:30:04;17.60;53.00
12981;DHT22;6555;50.468;8.480;2023-05-07T05:35:53;17.60;53.20
12981;DHT22;6555;50.468;8.480;2023-05-07T05:41:51;17.70;52.20
12981;DHT22;6555;50.468;8.480;2023-05-07T05:47:47;17.70;53.20
12981;DHT22;6555;50.468;8.480;2023-05-07T06:00:19;17.80;53.30
12981;DHT22;6555;50.468;8.480;2023-05-07T06:06:34;17.70;52.30
12981;DHT22;6555;50.468;8.480;2023-05-07T06:12:46;17.80;53.10
12981;DHT22;6555;50.468;8.480;2023-05-07T06:18:22;17.80;53.40
12981;DHT22;6555;50.468;8.480;2023-05-07T06:36:48;17.90;53.50
12981;DHT22;6555;50.468;8.480;2023-05-07T06:54:06;18.10;52.80
12981;DHT22;6555;50.468;8.480;2023-05-07T07:00:18;18.10;53.70
12981;DHT22;6555;50.468;8.480;2023-05-07T07:06:18;18.20;53.70
12981;DHT22;6555;50.468;8.480;2023-05-07T07:12:03;18.30;54.20
12981;DHT22;6555;50.468;8.480;2023-05-07T07:18:51;18.50;54.30
12981;DHT22;6555;50.468;8.480;2023-05-07T07:24:45;18.80;54.20
12981;DHT22;6555;50.468;8.480;2023-05-07T07:30:50;18.90;53.80
12981;DHT22;6555;50.468;8.480;2023-05-07T08:07:02;19.50;53.70
12981;DHT22;6555;50.468;8.480;2023-05-07T08:13:16;19.60;53.60
12981;DHT22;6555;50.468;8.480;2023-05-07T08:20:27;19.60;53.90
12981;DHT22;6555;50.468;8.480;2023-05-07T08:25:50;19.70;53.50
12981;DHT22;6555;50.468;8.480;2023-05-07T09:07:43;20.80;53.80
12981;DHT22;6555;50.468;8.480;2023-05-07T09:13:09;20.90;53.60
12981;DHT22;6555;50.468;8.480;2023-05-07T09:30:58;21.50;54.20
12981;DHT22;6555;50.468;8.480;2023-05-07T10:23:08;23.20;52.40
12981;DHT22;6555;50.468;8.480;2023-05-07T10:29:39;23.20;52.20
12981;DHT22;6555;50.468;8.480;2023-05-07T10:41:25;23.60;52.60
12981;DHT22;6555;50.468;8.480;2023-05-07T20:48:48;20.80;47.00
12981;DHT22;6555;50.468;8.480;2023-05-07T20:54:32;20.60;47.40
12981;DHT22;6555;50.468;8.480;2023-05-07T21:00:52;20.50;46.90
12981;DHT22;6555;50.468;8.480;2023-05-07T21:12:26;20.20;46.90
12981;DHT22;6555;50.468;8.480;2023-05-07T21:17:59;20.10;47.90
12981;DHT22;6555;50.468;8.480;2023-05-07T21:28:51;19.80;47.40
12981;DHT22;6555;50.468;8.480;2023-05-07T21:34:18;19.70;47.80
12981;DHT22;6555;50.468;8.480;2023-05-07T21:39:51;19.70;48.60
12981;DHT22;6555;50.468;8.480;2023-05-07T21:46:00;19.60;47.80
12981;DHT22;6555;50.468;8.480;2023-05-07T21:57:11;19.40;47.80
12981;DHT22;6555;50.468;8.480;2023-05-07T22:08:45;19.20;48.50
12981;DHT22;6555;50.468;8.480;2023-05-07T22:19:50;19.00;48.50
12981;DHT22;6555;50.468;8.480;2023-05-07T22:25:37;18.90;48.00
12981;DHT22;6555;50.468;8.480;2023-05-07T22:37:10;18.70;48.70
12981;DHT22;6555;50.468;8.480;2023-05-07T22:43:00;18.60;48.20
12981;DHT22;6555;50.468;8.480;2023-05-07T22:48:25;18.60;48.70
12981;DHT22;6555;50.468;8.480;2023-05-07T22:54:33;18.40;48.10
12981;DHT22;6555;50.468;8.480;2023-05-07T22:59:58;18.40;48.40
12981;DHT22;6555;50.468;8.480;2023-05-07T23:05:38;18.30;48.50
12981;DHT22;6555;50.468;8.480;2023-05-07T23:11:31;18.30;49.20
12981;DHT22;6555;50.468;8.480;2023-05-07T23:17:23;18.20;49.10
12981;DHT22;6555;50.468;8.480;2023-05-07T23:23:24;18.10;49.00
12981;DHT22;6555;50.468;8.480;2023-05-07T23:29:12;18.10;49.20
12981;DHT22;6555;50.468;8.480;2023-05-07T23:34:48;18.10;48.90
12981;DHT22;6555;50.468;8.480;2023-05-07T23:40:32;18.00;49.10
12981;DHT22;6555;50.468;8.480;2023-05-07T23:46:15;18.00;48.60
12981;DHT22;6555;50.468;8.480;2023-05-07T23:57:52;17.90;48.60
